TRA58C EHAM-LIPX
Flight info
| Callsign | TRA58C |
|---|---|
| Flight time | 1h 21m |
| Altitude | 35000 |
| Route | EDUPO Z739 MISGO DCT ASBON DCT TUSUK DCT UTABA M738 NATAG/N0346F190 M738 LORLO Q49 MOVOR T897 ANJAT |
| Aircraft | A21N/M-SBDE2E3FGHIJ1J5M1P2RWXYZ/LB1D1G1 |
Departure
| Time | 2026-05-07 18:30 |
|---|---|
| Airport | Amsterdam Airport Schiphol (EHAM) |
Arrival
| Time | 2026-05-07 19:51 |
|---|---|
| Airport | Verona Villafranca Valerio Catullo Airport (LIPX) |
| Time | Latitude | Longitude | Altitude | Speed | Heading |
|---|---|---|---|---|---|
| 2026-05-07 18:05 | 52.30431 | 4.76669 | 4 ft | 0 kts | 28° |
| 2026-05-07 18:21 | 52.30417 | 4.76656 | 4 ft | 4 kts | 29° |
| 2026-05-07 18:21 | 52.30398 | 4.76640 | 4 ft | 3 kts | 28° |
| 2026-05-07 18:22 | 52.30382 | 4.76614 | 4 ft | 4 kts | 80° |
| 2026-05-07 18:22 | 52.30383 | 4.76588 | 4 ft | 5 kts | 108° |
| 2026-05-07 18:22 | 52.30389 | 4.76564 | 4 ft | 1 kts | 119° |
| 2026-05-07 18:25 | 52.30388 | 4.76568 | 4 ft | 2 kts | 119° |
| 2026-05-07 18:25 | 52.30346 | 4.76588 | 4 ft | 15 kts | 195° |
| 2026-05-07 18:25 | 52.30264 | 4.76439 | 4 ft | 19 kts | 238° |
| 2026-05-07 18:25 | 52.30189 | 4.76244 | 4 ft | 21 kts | 237° |
| 2026-05-07 18:26 | 52.30107 | 4.76028 | 4 ft | 23 kts | 238° |
| 2026-05-07 18:26 | 52.30016 | 4.75794 | 4 ft | 25 kts | 238° |
| 2026-05-07 18:26 | 52.29920 | 4.75541 | 4 ft | 27 kts | 238° |
| 2026-05-07 18:26 | 52.29835 | 4.75304 | 4 ft | 21 kts | 256° |
| 2026-05-07 18:27 | 52.29897 | 4.75091 | 5 ft | 22 kts | 313° |
| 2026-05-07 18:27 | 52.30003 | 4.74895 | 4 ft | 24 kts | 311° |
| 2026-05-07 18:27 | 52.30115 | 4.74690 | 12 ft | 25 kts | 312° |
| 2026-05-07 18:27 | 52.30234 | 4.74469 | 15 ft | 26 kts | 311° |
| 2026-05-07 18:28 | 52.30352 | 4.74246 | 4 ft | 24 kts | 307° |
| 2026-05-07 18:28 | 52.30313 | 4.74030 | 4 ft | 23 kts | 212° |
| 2026-05-07 18:28 | 52.30193 | 4.73868 | 4 ft | 21 kts | 253° |
| 2026-05-07 18:28 | 52.30219 | 4.73734 | 3 ft | 11 kts | 359° |
| 2026-05-07 18:29 | 52.30300 | 4.73747 | 1 ft | 12 kts | 3° |
| 2026-05-07 18:29 | 52.30449 | 4.73760 | 3 ft | 48 kts | 3° |
| 2026-05-07 18:29 | 52.31015 | 4.73814 | 5 ft | 112 kts | 4° |
| 2026-05-07 18:29 | 52.31986 | 4.73902 | 9 ft | 163 kts | 5° |
| 2026-05-07 18:30 | 52.33134 | 4.73965 | 477 ft | 166 kts | 3° |
| 2026-05-07 18:30 | 52.34267 | 4.74285 | 1014 ft | 171 kts | 25° |
| 2026-05-07 18:30 | 52.35392 | 4.75160 | 1464 ft | 188 kts | 26° |
| 2026-05-07 18:30 | 52.36652 | 4.76101 | 1908 ft | 214 kts | 26° |
| 2026-05-07 18:31 | 52.38048 | 4.77293 | 2352 ft | 237 kts | 39° |
| 2026-05-07 18:31 | 52.39277 | 4.79209 | 3018 ft | 250 kts | 48° |
| 2026-05-07 18:31 | 52.40478 | 4.81313 | 3890 ft | 256 kts | 48° |
| 2026-05-07 18:31 | 52.41661 | 4.83528 | 4737 ft | 262 kts | 57° |
| 2026-05-07 18:32 | 52.42376 | 4.86283 | 5476 ft | 268 kts | 82° |
| 2026-05-07 18:32 | 52.42479 | 4.89351 | 5920 ft | 271 kts | 92° |
| 2026-05-07 18:32 | 52.42450 | 4.92449 | 6091 ft | 272 kts | 92° |
| 2026-05-07 18:32 | 52.42399 | 4.95561 | 6793 ft | 275 kts | 97° |
| 2026-05-07 18:33 | 52.41917 | 4.98564 | 7627 ft | 274 kts | 118° |
| 2026-05-07 18:33 | 52.40744 | 5.01001 | 8450 ft | 275 kts | 141° |
| 2026-05-07 18:33 | 52.39180 | 5.02857 | 9297 ft | 279 kts | 147° |
| 2026-05-07 18:33 | 52.37548 | 5.04642 | 10119 ft | 285 kts | 147° |
| 2026-05-07 18:34 | 52.35884 | 5.06491 | 10580 ft | 303 kts | 147° |
| 2026-05-07 18:34 | 52.34091 | 5.08535 | 10916 ft | 325 kts | 144° |
| 2026-05-07 18:34 | 52.32388 | 5.11082 | 11468 ft | 338 kts | 134° |
| 2026-05-07 18:34 | 52.30798 | 5.13949 | 12221 ft | 343 kts | 133° |
| 2026-05-07 18:35 | 52.29209 | 5.16883 | 12803 ft | 347 kts | 133° |
| 2026-05-07 18:35 | 52.27600 | 5.19833 | 13031 ft | 348 kts | 133° |
| 2026-05-07 18:35 | 52.25980 | 5.22774 | 13082 ft | 348 kts | 133° |
| 2026-05-07 18:35 | 52.24381 | 5.25746 | 13098 ft | 349 kts | 129° |
| 2026-05-07 18:36 | 52.22939 | 5.28947 | 13088 ft | 350 kts | 126° |
| 2026-05-07 18:36 | 52.21549 | 5.32197 | 13237 ft | 350 kts | 126° |
| 2026-05-07 18:36 | 52.20146 | 5.35467 | 13904 ft | 354 kts | 126° |
| 2026-05-07 18:36 | 52.18721 | 5.38763 | 14633 ft | 357 kts | 126° |
| 2026-05-07 18:37 | 52.17286 | 5.42073 | 15343 ft | 360 kts | 126° |
| 2026-05-07 18:37 | 52.15828 | 5.45426 | 16066 ft | 362 kts | 126° |
| 2026-05-07 18:37 | 52.14365 | 5.48776 | 16756 ft | 366 kts | 126° |
| 2026-05-07 18:37 | 52.12881 | 5.52166 | 17432 ft | 370 kts | 126° |
| 2026-05-07 18:38 | 52.11380 | 5.55596 | 18104 ft | 374 kts | 126° |
| 2026-05-07 18:38 | 52.09865 | 5.59057 | 18711 ft | 378 kts | 126° |
| 2026-05-07 18:38 | 52.08335 | 5.62547 | 19278 ft | 381 kts | 126° |
| 2026-05-07 18:38 | 52.06789 | 5.66061 | 19832 ft | 384 kts | 127° |
| 2026-05-07 18:39 | 52.05120 | 5.69463 | 20383 ft | 386 kts | 131° |
| 2026-05-07 18:39 | 52.03350 | 5.72781 | 20932 ft | 390 kts | 132° |
| 2026-05-07 18:39 | 52.01559 | 5.76113 | 21470 ft | 393 kts | 132° |
| 2026-05-07 18:39 | 51.99751 | 5.79470 | 21999 ft | 397 kts | 132° |
| 2026-05-07 18:40 | 51.97929 | 5.82856 | 22533 ft | 400 kts | 132° |
| 2026-05-07 18:40 | 51.96091 | 5.86280 | 23058 ft | 404 kts | 132° |
| 2026-05-07 18:40 | 51.94242 | 5.89722 | 23576 ft | 407 kts | 133° |
| 2026-05-07 18:40 | 51.92372 | 5.93200 | 24028 ft | 411 kts | 133° |
| 2026-05-07 18:41 | 51.90495 | 5.96697 | 24488 ft | 413 kts | 132° |
| 2026-05-07 18:41 | 51.88603 | 6.00224 | 24908 ft | 417 kts | 133° |
| 2026-05-07 18:41 | 51.86690 | 6.03770 | 25087 ft | 418 kts | 133° |
| 2026-05-07 18:41 | 51.84781 | 6.07308 | 25111 ft | 418 kts | 133° |
| 2026-05-07 18:42 | 51.82864 | 6.10840 | 25101 ft | 418 kts | 133° |
| 2026-05-07 18:42 | 51.80968 | 6.14323 | 25091 ft | 418 kts | 133° |
| 2026-05-07 18:42 | 51.79045 | 6.17844 | 25087 ft | 418 kts | 133° |
| 2026-05-07 18:42 | 51.77123 | 6.21360 | 25112 ft | 418 kts | 133° |
| 2026-05-07 18:43 | 51.75195 | 6.24888 | 25438 ft | 421 kts | 133° |
| 2026-05-07 18:43 | 51.73255 | 6.28433 | 25887 ft | 422 kts | 133° |
| 2026-05-07 18:43 | 51.71301 | 6.31993 | 26328 ft | 424 kts | 133° |
| 2026-05-07 18:43 | 51.69338 | 6.35560 | 26746 ft | 427 kts | 133° |
| 2026-05-07 18:44 | 51.67364 | 6.39145 | 27151 ft | 429 kts | 133° |
| 2026-05-07 18:44 | 51.65378 | 6.42754 | 27545 ft | 431 kts | 133° |
| 2026-05-07 18:44 | 51.63384 | 6.46377 | 27929 ft | 434 kts | 133° |
| 2026-05-07 18:44 | 51.61376 | 6.50021 | 28295 ft | 436 kts | 133° |
| 2026-05-07 18:45 | 51.59356 | 6.53674 | 28646 ft | 439 kts | 133° |
| 2026-05-07 18:45 | 51.57320 | 6.57350 | 29001 ft | 441 kts | 133° |
| 2026-05-07 18:45 | 51.55276 | 6.61040 | 29352 ft | 443 kts | 133° |
| 2026-05-07 18:45 | 51.53219 | 6.64743 | 29704 ft | 445 kts | 134° |
| 2026-05-07 18:46 | 51.51146 | 6.68458 | 30053 ft | 447 kts | 134° |
| 2026-05-07 18:46 | 51.49067 | 6.72194 | 30355 ft | 450 kts | 134° |
| 2026-05-07 18:46 | 51.46980 | 6.75939 | 30637 ft | 451 kts | 133° |
| 2026-05-07 18:46 | 51.44882 | 6.79689 | 30922 ft | 453 kts | 134° |
| 2026-05-07 18:47 | 51.42769 | 6.83444 | 31275 ft | 453 kts | 134° |
| 2026-05-07 18:47 | 51.40594 | 6.87071 | 31653 ft | 450 kts | 140° |
| 2026-05-07 18:47 | 51.38093 | 6.90054 | 32001 ft | 447 kts | 149° |
| 2026-05-07 18:47 | 51.35466 | 6.92703 | 32339 ft | 447 kts | 150° |
| 2026-05-07 18:48 | 51.32826 | 6.95311 | 32667 ft | 446 kts | 150° |
| 2026-05-07 18:48 | 51.30188 | 6.97927 | 33018 ft | 446 kts | 150° |
| 2026-05-07 18:48 | 51.27561 | 7.00553 | 33351 ft | 445 kts | 149° |
| 2026-05-07 18:48 | 51.24940 | 7.03184 | 33674 ft | 444 kts | 149° |
| 2026-05-07 18:49 | 51.22327 | 7.05799 | 33981 ft | 444 kts | 149° |
| 2026-05-07 18:49 | 51.19719 | 7.08415 | 34245 ft | 443 kts | 149° |
| 2026-05-07 18:49 | 51.17108 | 7.11031 | 34463 ft | 443 kts | 150° |
| 2026-05-07 18:49 | 51.14492 | 7.13634 | 34658 ft | 443 kts | 150° |
| 2026-05-07 18:50 | 51.11871 | 7.16244 | 34836 ft | 444 kts | 149° |
| 2026-05-07 18:50 | 51.09249 | 7.18859 | 34992 ft | 445 kts | 150° |
| 2026-05-07 18:50 | 51.06618 | 7.21470 | 35106 ft | 447 kts | 150° |
| 2026-05-07 18:51 | 51.01392 | 7.26661 | 35098 ft | 445 kts | 150° |
| 2026-05-07 18:51 | 50.96134 | 7.31861 | 35086 ft | 445 kts | 150° |
| 2026-05-07 18:52 | 50.90870 | 7.37045 | 35087 ft | 445 kts | 150° |
| 2026-05-07 18:52 | 50.85607 | 7.42220 | 35083 ft | 445 kts | 150° |
| 2026-05-07 18:53 | 50.80342 | 7.47389 | 35077 ft | 445 kts | 150° |
| 2026-05-07 18:53 | 50.75071 | 7.52555 | 35071 ft | 446 kts | 150° |
| 2026-05-07 18:54 | 50.69829 | 7.57810 | 35068 ft | 447 kts | 148° |
| 2026-05-07 18:54 | 50.64614 | 7.63196 | 35068 ft | 448 kts | 148° |
| 2026-05-07 18:55 | 50.59404 | 7.68583 | 35067 ft | 448 kts | 148° |
| 2026-05-07 18:55 | 50.54186 | 7.73964 | 35071 ft | 449 kts | 148° |
| 2026-05-07 18:56 | 50.48966 | 7.79335 | 35071 ft | 449 kts | 148° |
| 2026-05-07 18:56 | 50.43744 | 7.84702 | 35075 ft | 449 kts | 148° |
| 2026-05-07 18:57 | 50.38514 | 7.90067 | 35078 ft | 451 kts | 148° |
| 2026-05-07 18:57 | 50.33247 | 7.95441 | 35080 ft | 452 kts | 148° |
| 2026-05-07 18:58 | 50.27966 | 8.00800 | 35074 ft | 453 kts | 148° |
| 2026-05-07 18:58 | 50.22723 | 8.06129 | 35070 ft | 453 kts | 148° |
| 2026-05-07 18:59 | 50.17437 | 8.11474 | 35071 ft | 452 kts | 148° |
| 2026-05-07 18:59 | 50.12054 | 8.16503 | 35056 ft | 450 kts | 156° |
| 2026-05-07 19:00 | 50.06379 | 8.20619 | 35062 ft | 450 kts | 157° |
| 2026-05-07 19:00 | 50.00689 | 8.24706 | 35069 ft | 452 kts | 157° |
| 2026-05-07 19:01 | 49.94983 | 8.28811 | 35068 ft | 452 kts | 157° |
| 2026-05-07 19:01 | 49.89244 | 8.32927 | 35072 ft | 459 kts | 157° |
| 2026-05-07 19:02 | 49.83387 | 8.37112 | 35081 ft | 468 kts | 158° |
| 2026-05-07 19:02 | 49.77411 | 8.41207 | 35077 ft | 470 kts | 158° |
| 2026-05-07 19:03 | 49.71432 | 8.45293 | 35080 ft | 470 kts | 158° |
| 2026-05-07 19:03 | 49.65448 | 8.49343 | 35073 ft | 470 kts | 158° |
| 2026-05-07 19:04 | 49.60465 | 8.52713 | 35082 ft | 470 kts | 158° |
| 2026-05-07 19:04 | 49.54474 | 8.56771 | 35083 ft | 471 kts | 158° |
| 2026-05-07 19:05 | 49.48480 | 8.60812 | 35084 ft | 470 kts | 158° |
| 2026-05-07 19:05 | 49.42483 | 8.64851 | 35082 ft | 470 kts | 158° |
| 2026-05-07 19:06 | 49.36483 | 8.68856 | 35078 ft | 470 kts | 159° |
| 2026-05-07 19:06 | 49.27486 | 8.74861 | 35072 ft | 470 kts | 159° |
| 2026-05-07 19:07 | 49.21489 | 8.78851 | 35065 ft | 470 kts | 159° |
| 2026-05-07 19:07 | 49.15494 | 8.82836 | 35059 ft | 470 kts | 159° |
| 2026-05-07 19:08 | 49.09496 | 8.86815 | 35064 ft | 471 kts | 159° |
| 2026-05-07 19:08 | 49.03479 | 8.90797 | 35064 ft | 471 kts | 159° |
| 2026-05-07 19:09 | 48.97458 | 8.94764 | 35070 ft | 472 kts | 159° |
| 2026-05-07 19:09 | 48.91436 | 8.98723 | 35062 ft | 472 kts | 159° |
| 2026-05-07 19:10 | 48.85408 | 9.02680 | 35059 ft | 472 kts | 159° |
| 2026-05-07 19:10 | 48.79384 | 9.06624 | 35057 ft | 472 kts | 159° |
| 2026-05-07 19:11 | 48.73395 | 9.10529 | 35054 ft | 471 kts | 159° |
| 2026-05-07 19:11 | 48.67372 | 9.14441 | 35043 ft | 471 kts | 160° |
| 2026-05-07 19:12 | 48.61345 | 9.18348 | 35047 ft | 472 kts | 160° |
| 2026-05-07 19:12 | 48.55311 | 9.22261 | 35069 ft | 472 kts | 160° |
| 2026-05-07 19:13 | 48.49275 | 9.26157 | 35070 ft | 472 kts | 160° |
| 2026-05-07 19:13 | 48.43237 | 9.30040 | 35067 ft | 472 kts | 160° |
| 2026-05-07 19:14 | 48.37195 | 9.33907 | 35074 ft | 472 kts | 160° |
| 2026-05-07 19:14 | 48.31153 | 9.37772 | 35067 ft | 472 kts | 160° |
| 2026-05-07 19:15 | 48.25109 | 9.41632 | 35061 ft | 472 kts | 160° |
| 2026-05-07 19:15 | 48.19073 | 9.45476 | 35057 ft | 472 kts | 160° |
| 2026-05-07 19:16 | 48.13026 | 9.49320 | 35061 ft | 472 kts | 160° |
| 2026-05-07 19:16 | 48.06969 | 9.53159 | 35065 ft | 472 kts | 160° |
| 2026-05-07 19:17 | 48.01011 | 9.57331 | 35038 ft | 477 kts | 150° |
| 2026-05-07 19:17 | 47.95639 | 9.63085 | 35050 ft | 479 kts | 147° |
| 2026-05-07 19:18 | 47.90262 | 9.68934 | 35057 ft | 479 kts | 147° |
| 2026-05-07 19:18 | 47.84865 | 9.74755 | 35055 ft | 479 kts | 147° |
| 2026-05-07 19:19 | 47.79466 | 9.80557 | 35029 ft | 479 kts | 148° |
| 2026-05-07 19:19 | 47.74055 | 9.86352 | 35040 ft | 480 kts | 148° |
| 2026-05-07 19:20 | 47.68636 | 9.92138 | 35042 ft | 480 kts | 148° |
| 2026-05-07 19:20 | 47.63218 | 9.97913 | 35052 ft | 480 kts | 148° |
| 2026-05-07 19:21 | 47.57798 | 10.03690 | 35053 ft | 480 kts | 148° |
| 2026-05-07 19:21 | 47.52385 | 10.09448 | 35051 ft | 480 kts | 148° |
| 2026-05-07 19:22 | 47.46957 | 10.15195 | 35059 ft | 480 kts | 148° |
| 2026-05-07 19:22 | 47.41416 | 10.20682 | 35063 ft | 478 kts | 152° |
| 2026-05-07 19:23 | 47.35760 | 10.25838 | 35070 ft | 478 kts | 152° |
| 2026-05-07 19:23 | 47.30100 | 10.30987 | 35059 ft | 477 kts | 153° |
| 2026-05-07 19:24 | 47.24451 | 10.36070 | 35078 ft | 476 kts | 153° |
| 2026-05-07 19:24 | 47.18785 | 10.41153 | 35076 ft | 478 kts | 153° |
| 2026-05-07 19:25 | 47.13109 | 10.46243 | 35079 ft | 478 kts | 153° |
| 2026-05-07 19:25 | 47.07464 | 10.51282 | 35072 ft | 477 kts | 154° |
| 2026-05-07 19:26 | 47.04506 | 10.53398 | 35080 ft | 470 kts | 165° |
| 2026-05-07 19:26 | 47.01413 | 10.54892 | 35077 ft | 467 kts | 168° |
| 2026-05-07 19:26 | 46.95195 | 10.57650 | 35081 ft | 467 kts | 168° |
| 2026-05-07 19:27 | 46.88977 | 10.60425 | 35053 ft | 467 kts | 168° |
| 2026-05-07 19:27 | 46.82771 | 10.63224 | 35070 ft | 467 kts | 168° |
| 2026-05-07 19:28 | 46.76553 | 10.66017 | 35089 ft | 467 kts | 169° |
| 2026-05-07 19:28 | 46.73477 | 10.67387 | 34718 ft | 459 kts | 171° |
| 2026-05-07 19:28 | 46.70359 | 10.68265 | 33681 ft | 457 kts | 180° |
| 2026-05-07 19:29 | 46.67201 | 10.68773 | 32894 ft | 454 kts | 180° |
| 2026-05-07 19:29 | 46.64081 | 10.69253 | 32348 ft | 448 kts | 180° |
| 2026-05-07 19:29 | 46.60991 | 10.69739 | 31711 ft | 445 kts | 180° |
| 2026-05-07 19:29 | 46.57919 | 10.70231 | 31110 ft | 442 kts | 180° |
| 2026-05-07 19:30 | 46.54880 | 10.70721 | 30589 ft | 438 kts | 180° |
| 2026-05-07 19:30 | 46.51861 | 10.71213 | 29955 ft | 434 kts | 180° |
| 2026-05-07 19:30 | 46.48874 | 10.71693 | 29314 ft | 429 kts | 179° |
| 2026-05-07 19:30 | 46.45926 | 10.72169 | 28620 ft | 425 kts | 179° |
| 2026-05-07 19:31 | 46.42996 | 10.72641 | 27972 ft | 421 kts | 179° |
| 2026-05-07 19:31 | 46.40104 | 10.73108 | 27332 ft | 417 kts | 179° |
| 2026-05-07 19:31 | 46.37270 | 10.73563 | 26713 ft | 413 kts | 179° |
| 2026-05-07 19:31 | 46.34429 | 10.74018 | 26121 ft | 410 kts | 178° |
| 2026-05-07 19:32 | 46.31604 | 10.74469 | 25580 ft | 406 kts | 178° |
| 2026-05-07 19:32 | 46.28811 | 10.74915 | 25040 ft | 403 kts | 178° |
| 2026-05-07 19:32 | 46.26037 | 10.75359 | 24539 ft | 399 kts | 177° |
| 2026-05-07 19:32 | 46.23292 | 10.75799 | 23987 ft | 396 kts | 177° |
| 2026-05-07 19:33 | 46.20558 | 10.76237 | 23409 ft | 394 kts | 177° |
| 2026-05-07 19:33 | 46.17852 | 10.76670 | 22864 ft | 388 kts | 176° |
| 2026-05-07 19:33 | 46.15180 | 10.77098 | 22246 ft | 385 kts | 176° |
| 2026-05-07 19:33 | 46.12526 | 10.77521 | 21649 ft | 383 kts | 176° |
| 2026-05-07 19:34 | 46.09894 | 10.77940 | 21148 ft | 379 kts | 176° |
| 2026-05-07 19:34 | 46.07282 | 10.78353 | 20586 ft | 377 kts | 176° |
| 2026-05-07 19:34 | 46.04695 | 10.78764 | 20075 ft | 372 kts | 176° |
| 2026-05-07 19:34 | 46.02124 | 10.79174 | 19513 ft | 371 kts | 176° |
| 2026-05-07 19:35 | 45.99568 | 10.79580 | 18963 ft | 368 kts | 176° |
| 2026-05-07 19:35 | 45.97038 | 10.79981 | 18491 ft | 364 kts | 176° |
| 2026-05-07 19:35 | 45.94533 | 10.80378 | 17911 ft | 361 kts | 176° |
| 2026-05-07 19:35 | 45.92039 | 10.80772 | 17321 ft | 359 kts | 176° |
| 2026-05-07 19:36 | 45.89565 | 10.81163 | 16772 ft | 356 kts | 176° |
| 2026-05-07 19:36 | 45.87124 | 10.81549 | 16300 ft | 350 kts | 176° |
| 2026-05-07 19:36 | 45.84748 | 10.81925 | 15901 ft | 345 kts | 176° |
| 2026-05-07 19:36 | 45.82384 | 10.82294 | 15531 ft | 339 kts | 178° |
| 2026-05-07 19:37 | 45.80056 | 10.82375 | 15156 ft | 331 kts | 183° |
| 2026-05-07 19:37 | 45.77769 | 10.82313 | 14794 ft | 326 kts | 184° |
| 2026-05-07 19:37 | 45.75483 | 10.82241 | 14420 ft | 323 kts | 184° |
| 2026-05-07 19:37 | 45.73249 | 10.82175 | 14050 ft | 319 kts | 184° |
| 2026-05-07 19:38 | 45.71023 | 10.82112 | 13701 ft | 320 kts | 183° |
| 2026-05-07 19:38 | 45.68797 | 10.82051 | 13331 ft | 320 kts | 183° |
| 2026-05-07 19:38 | 45.66575 | 10.81992 | 12963 ft | 318 kts | 183° |
| 2026-05-07 19:38 | 45.64411 | 10.81834 | 12609 ft | 313 kts | 191° |
| 2026-05-07 19:39 | 45.62298 | 10.81160 | 12276 ft | 309 kts | 197° |
| 2026-05-07 19:39 | 45.60229 | 10.80355 | 11949 ft | 308 kts | 197° |
| 2026-05-07 19:39 | 45.58164 | 10.79555 | 11620 ft | 307 kts | 197° |
| 2026-05-07 19:39 | 45.56103 | 10.78773 | 11290 ft | 306 kts | 197° |
| 2026-05-07 19:40 | 45.54044 | 10.77995 | 10966 ft | 306 kts | 197° |
| 2026-05-07 19:40 | 45.51991 | 10.77219 | 10647 ft | 305 kts | 196° |
| 2026-05-07 19:40 | 45.49949 | 10.76451 | 10385 ft | 302 kts | 196° |
| 2026-05-07 19:40 | 45.47940 | 10.75690 | 10186 ft | 294 kts | 196° |
| 2026-05-07 19:41 | 45.45993 | 10.74957 | 9991 ft | 286 kts | 196° |
| 2026-05-07 19:41 | 45.44071 | 10.74233 | 9688 ft | 285 kts | 196° |
| 2026-05-07 19:41 | 45.42151 | 10.73511 | 9348 ft | 285 kts | 196° |
| 2026-05-07 19:41 | 45.40277 | 10.72617 | 9006 ft | 284 kts | 208° |
| 2026-05-07 19:42 | 45.38715 | 10.70945 | 8596 ft | 281 kts | 225° |
| 2026-05-07 19:42 | 45.37339 | 10.68981 | 8166 ft | 280 kts | 226° |
| 2026-05-07 19:42 | 45.35975 | 10.67001 | 7753 ft | 280 kts | 226° |
| 2026-05-07 19:42 | 45.34615 | 10.65036 | 7360 ft | 278 kts | 226° |
| 2026-05-07 19:43 | 45.33303 | 10.63048 | 7131 ft | 271 kts | 227° |
| 2026-05-07 19:43 | 45.32041 | 10.61125 | 6990 ft | 261 kts | 227° |
| 2026-05-07 19:43 | 45.30822 | 10.59295 | 6866 ft | 249 kts | 227° |
| 2026-05-07 19:43 | 45.29645 | 10.57551 | 6686 ft | 241 kts | 226° |
| 2026-05-07 19:44 | 45.28480 | 10.55857 | 6394 ft | 238 kts | 226° |
| 2026-05-07 19:44 | 45.27267 | 10.54268 | 6076 ft | 238 kts | 213° |
| 2026-05-07 19:44 | 45.25721 | 10.53529 | 5829 ft | 238 kts | 180° |
| 2026-05-07 19:44 | 45.24145 | 10.54141 | 5548 ft | 239 kts | 147° |
| 2026-05-07 19:45 | 45.22894 | 10.55684 | 5269 ft | 237 kts | 135° |
| 2026-05-07 19:45 | 45.21784 | 10.57342 | 5081 ft | 227 kts | 133° |
| 2026-05-07 19:45 | 45.20868 | 10.59093 | 4865 ft | 218 kts | 112° |
| 2026-05-07 19:45 | 45.20742 | 10.61179 | 4517 ft | 215 kts | 73° |
| 2026-05-07 19:46 | 45.21449 | 10.62990 | 4203 ft | 215 kts | 47° |
| 2026-05-07 19:46 | 45.22521 | 10.64455 | 3893 ft | 214 kts | 43° |
| 2026-05-07 19:46 | 45.23614 | 10.65877 | 3588 ft | 212 kts | 43° |
| 2026-05-07 19:46 | 45.24685 | 10.67312 | 3280 ft | 211 kts | 44° |
| 2026-05-07 19:47 | 45.25716 | 10.68751 | 3041 ft | 201 kts | 46° |
| 2026-05-07 19:47 | 45.26661 | 10.70111 | 2943 ft | 186 kts | 46° |
| 2026-05-07 19:47 | 45.27524 | 10.71361 | 2890 ft | 167 kts | 46° |
| 2026-05-07 19:47 | 45.28317 | 10.72511 | 2883 ft | 162 kts | 46° |
| 2026-05-07 19:48 | 45.29106 | 10.73655 | 2850 ft | 162 kts | 46° |
| 2026-05-07 19:48 | 45.29893 | 10.74796 | 2696 ft | 161 kts | 46° |
| 2026-05-07 19:48 | 45.30676 | 10.75932 | 2494 ft | 161 kts | 46° |
| 2026-05-07 19:48 | 45.31455 | 10.77062 | 2283 ft | 160 kts | 45° |
| 2026-05-07 19:49 | 45.32235 | 10.78188 | 2073 ft | 159 kts | 45° |
| 2026-05-07 19:49 | 45.33011 | 10.79306 | 1863 ft | 159 kts | 45° |
| 2026-05-07 19:49 | 45.33787 | 10.80416 | 1662 ft | 158 kts | 45° |
| 2026-05-07 19:49 | 45.34541 | 10.81547 | 1458 ft | 157 kts | 48° |
| 2026-05-07 19:50 | 45.35289 | 10.82676 | 1223 ft | 156 kts | 46° |
| 2026-05-07 19:50 | 45.36051 | 10.83777 | 976 ft | 156 kts | 44° |
| 2026-05-07 19:50 | 45.36817 | 10.84871 | 791 ft | 156 kts | 44° |
| 2026-05-07 19:50 | 45.37573 | 10.85976 | 556 ft | 156 kts | 44° |
| 2026-05-07 19:51 | 45.38335 | 10.87072 | 411 ft | 156 kts | 43° |
| 2026-05-07 19:51 | 45.39090 | 10.88160 | 252 ft | 148 kts | 44° |
| 2026-05-07 19:51 | 45.39736 | 10.89087 | 245 ft | 107 kts | 45° |
| 2026-05-07 19:51 | 45.40112 | 10.89645 | 251 ft | 49 kts | 47° |
| 2026-05-07 19:52 | 45.40310 | 10.89935 | 252 ft | 32 kts | 47° |
| 2026-05-07 19:52 | 45.40374 | 10.90054 | 250 ft | 8 kts | 112° |
| 2026-05-07 19:52 | 45.40363 | 10.90084 | 250 ft | 4 kts | 114° |
| 2026-05-07 19:52 | 45.40350 | 10.90127 | 250 ft | 5 kts | 114° |
| 2026-05-07 19:53 | 45.40335 | 10.90184 | 249 ft | 7 kts | 98° |
| 2026-05-07 19:53 | 45.40336 | 10.90266 | 248 ft | 10 kts | 76° |
| 2026-05-07 19:53 | 45.40379 | 10.90355 | 248 ft | 12 kts | 46° |
| 2026-05-07 19:53 | 45.40448 | 10.90449 | 248 ft | 15 kts | 43° |
| 2026-05-07 19:54 | 45.40471 | 10.90541 | 247 ft | 7 kts | 128° |
| 2026-05-07 19:54 | 45.40442 | 10.90578 | 248 ft | 5 kts | 135° |
| 2026-05-07 19:54 | 45.40438 | 10.90584 | 248 ft | 0 kts | 136° |